createdAt,value
2022-08-10T00:00:24.030Z,99140.19
2022-08-10T00:03:12.306Z,99143.47
2022-08-10T00:06:00.683Z,99139.09
2022-08-10T00:08:50.413Z,99133.75
2022-08-10T00:11:38.862Z,99141.88
2022-08-10T00:14:27.179Z,99137.84
2022-08-10T00:17:15.699Z,99142.81
2022-08-10T00:20:08.510Z,99134.50
2022-08-10T00:22:58.071Z,99136.03
2022-08-10T00:25:47.909Z,99132.72
2022-08-10T00:28:36.366Z,99130.00
2022-08-10T00:31:24.758Z,99131.56
2022-08-10T00:34:13.113Z,99137.66
2022-08-10T00:37:02.082Z,99134.13
2022-08-10T00:39:50.536Z,99130.59
2022-08-10T00:42:40.374Z,99143.53
2022-08-10T00:45:28.856Z,99138.72
2022-08-10T00:48:17.217Z,99148.59
2022-08-10T00:51:06.586Z,99156.25
2022-08-10T00:53:55.038Z,99142.03
2022-08-10T00:57:16.651Z,99150.34
2022-08-10T00:59:58.710Z,99146.56
2022-08-10T01:02:48.296Z,99148.06
2022-08-10T01:05:51.223Z,99147.50
2022-08-10T01:08:48.774Z,99141.16
2022-08-10T01:12:38.895Z,99133.75
2022-08-10T01:15:08.675Z,99135.53
2022-08-10T01:18:02.887Z,99137.81
2022-08-10T01:21:15.132Z,99133.47
2022-08-10T01:24:16.817Z,99141.47
2022-08-10T01:27:37.209Z,99134.63
2022-08-10T01:30:31.467Z,99139.44
2022-08-10T01:33:31.993Z,99133.91
2022-08-10T01:36:40.831Z,99135.88
2022-08-10T01:39:34.098Z,99140.88
2022-08-10T01:42:24.730Z,99145.50
2022-08-10T01:45:17.032Z,99139.41
2022-08-10T01:48:27.936Z,99138.38
2022-08-10T01:51:22.106Z,99139.94
2022-08-10T01:54:13.521Z,99149.06
2022-08-10T01:57:04.326Z,99138.16
2022-08-10T02:00:02.195Z,99144.25
2022-08-10T02:02:55.405Z,99135.84
2022-08-10T02:05:48.530Z,99141.47
2022-08-10T02:08:38.306Z,99141.44
2022-08-10T02:11:28.960Z,99136.88
2022-08-10T02:14:40.876Z,99142.19
2022-08-10T02:17:57.089Z,99138.13
2022-08-10T02:20:49.049Z,99146.22
2022-08-10T02:23:40.685Z,99151.28
2022-08-10T02:26:30.488Z,99143.66
2022-08-10T02:29:19.861Z,99145.88
2022-08-10T02:32:10.570Z,99147.22
2022-08-10T02:35:00.385Z,99153.41
2022-08-10T02:37:56.340Z,99152.53
2022-08-10T02:42:18.259Z,99149.22
2022-08-10T02:45:22.444Z,99153.06
2022-08-10T02:47:23.712Z,99154.25
2022-08-10T02:50:20.368Z,99151.84
2022-08-10T02:53:56.275Z,99152.56
2022-08-10T02:56:26.213Z,99155.66
2022-08-10T02:59:21.810Z,99162.19
2022-08-10T03:02:15.575Z,99159.28
2022-08-10T03:05:08.031Z,99160.63
2022-08-10T03:08:01.390Z,99167.72
2022-08-10T03:10:52.770Z,99170.16
2022-08-10T03:13:42.726Z,99165.88
2022-08-10T03:16:34.404Z,99165.84
2022-08-10T03:20:33.864Z,99166.38
2022-08-10T03:22:35.703Z,99174.47
2022-08-10T03:25:26.918Z,99175.00
2022-08-10T03:28:20.412Z,99175.81
2022-08-10T03:31:10.158Z,99176.44
2022-08-10T03:34:01.681Z,99182.13
2022-08-10T03:36:50.373Z,99188.94
2022-08-10T03:39:38.997Z,99196.44
2022-08-10T03:42:29.144Z,99190.97
2022-08-10T03:45:19.515Z,99187.41
2022-08-10T03:48:09.697Z,99191.78
2022-08-10T03:50:59.741Z,99198.44
2022-08-10T03:54:04.188Z,99194.94
2022-08-10T03:56:55.908Z,99197.06
2022-08-10T03:59:44.679Z,99200.28
2022-08-10T04:02:45.457Z,99198.63
2022-08-10T04:05:38.080Z,99205.34
2022-08-10T04:08:27.587Z,99201.91
2022-08-10T04:11:16.010Z,99202.25
2022-08-10T04:14:05.007Z,99203.66
2022-08-10T04:16:53.473Z,99217.09
2022-08-10T04:19:47.104Z,99205.25
2022-08-10T04:22:37.801Z,99209.03
2022-08-10T04:25:27.258Z,99218.66
2022-08-10T04:28:16.561Z,99218.16
2022-08-10T04:31:07.533Z,99216.59
2022-08-10T04:33:59.086Z,99219.44
2022-08-10T04:37:04.327Z,99214.66
2022-08-10T04:39:56.440Z,99210.72
2022-08-10T04:42:45.448Z,99212.38
2022-08-10T04:45:48.536Z,99218.47
2022-08-10T04:48:59.751Z,99228.66
2022-08-10T04:51:48.358Z,99219.63
2022-08-10T04:54:38.153Z,99225.38
2022-08-10T04:57:27.966Z,99225.25
2022-08-10T05:00:19.062Z,99228.91
2022-08-10T05:03:07.827Z,99214.75
2022-08-10T05:05:56.273Z,99231.63
2022-08-10T05:08:45.577Z,99229.56
2022-08-10T05:11:35.781Z,99232.47
2022-08-10T05:14:24.282Z,99236.78
2022-08-10T05:17:12.969Z,99230.63
2022-08-10T05:20:06.060Z,99230.84
2022-08-10T05:22:55.558Z,99226.28
2022-08-10T05:25:44.021Z,99234.22
2022-08-10T05:28:35.238Z,99240.41
2022-08-10T05:31:24.037Z,99227.47
2022-08-10T05:34:20.618Z,99231.19
2022-08-10T05:38:10.406Z,99218.34
2022-08-10T05:40:20.179Z,99222.41
2022-08-10T05:43:09.123Z,99215.31
2022-08-10T05:46:17.477Z,99221.94
2022-08-10T05:49:07.589Z,99222.22
2022-08-10T05:51:56.011Z,99230.09
2022-08-10T05:54:44.753Z,99224.75
2022-08-10T05:57:36.333Z,99233.06
2022-08-10T06:00:40.643Z,99236.63
2022-08-10T06:03:37.386Z,99226.69
2022-08-10T06:06:28.505Z,99227.91
2022-08-10T06:09:18.133Z,99225.44
2022-08-10T06:12:27.576Z,99236.41
2022-08-10T06:15:21.740Z,99225.84
2022-08-10T06:18:25.986Z,99225.53
2022-08-10T06:21:17.174Z,99236.00
2022-08-10T06:24:09.354Z,99235.72
2022-08-10T06:26:57.925Z,99235.56
2022-08-10T06:29:47.769Z,99231.25
2022-08-10T06:32:36.703Z,99225.41
2022-08-10T06:35:29.230Z,99240.00
2022-08-10T06:38:20.287Z,99233.38
2022-08-10T06:41:19.872Z,99230.59
2022-08-10T06:44:12.465Z,99234.63
2022-08-10T06:47:04.145Z,99237.88
2022-08-10T06:49:59.525Z,99233.34
2022-08-10T06:52:51.336Z,99232.81
2022-08-10T06:55:55.057Z,99234.25
2022-08-10T06:58:50.581Z,99232.66
2022-08-10T07:01:41.258Z,99228.16
2022-08-10T07:04:45.788Z,99229.03
2022-08-10T07:07:39.959Z,99228.50
2022-08-10T07:10:45.590Z,99230.56
2022-08-10T07:14:15.567Z,99222.75
2022-08-10T07:16:48.765Z,99234.44
2022-08-10T07:19:50.081Z,99227.81
2022-08-10T07:23:52.024Z,99227.81
2022-08-10T07:25:58.890Z,99226.44
2022-08-10T07:28:50.308Z,99226.91
2022-08-10T07:31:55.528Z,99224.09
2022-08-10T07:34:49.212Z,99222.56
2022-08-10T07:37:41.131Z,99208.53
2022-08-10T07:40:31.101Z,99224.75
2022-08-10T07:43:23.023Z,99221.91
2022-08-10T07:46:16.167Z,99222.25
2022-08-10T07:49:19.560Z,99217.44
2022-08-10T07:52:10.978Z,99224.72
2022-08-10T07:55:01.418Z,99224.47
2022-08-10T07:57:53.343Z,99224.13
2022-08-10T08:00:42.882Z,99230.34
2022-08-10T08:03:34.898Z,99226.63
2022-08-10T08:06:24.210Z,99226.53
2022-08-10T08:09:12.808Z,99227.31
2022-08-10T08:12:03.637Z,99224.25
2022-08-10T08:14:54.055Z,99226.00
2022-08-10T08:17:44.103Z,99227.88
2022-08-10T08:20:35.254Z,99213.31
2022-08-10T08:24:10.319Z,99217.84
2022-08-10T08:26:38.594Z,99207.59
2022-08-10T08:29:27.814Z,99214.91
2022-08-10T08:32:19.195Z,99206.59
2022-08-10T08:35:10.495Z,99204.56
2022-08-10T08:38:29.909Z,99202.19
2022-08-10T08:41:27.252Z,99200.63
2022-08-10T08:44:23.615Z,99203.06
2022-08-10T08:48:03.925Z,99197.19
2022-08-10T08:50:57.977Z,99192.25
2022-08-10T08:54:04.169Z,99190.66
2022-08-10T08:57:04.725Z,99192.84
2022-08-10T09:00:01.930Z,99194.53
2022-08-10T09:03:08.965Z,99189.13
2022-08-10T09:06:08.991Z,99189.50
2022-08-10T09:09:31.991Z,99178.94
2022-08-10T09:12:33.977Z,99182.59
2022-08-10T09:15:40.402Z,99181.31
2022-08-10T09:18:40.260Z,99186.31
2022-08-10T09:21:43.346Z,99182.31
2022-08-10T09:24:55.318Z,99188.53
2022-08-10T09:27:49.378Z,99195.97
2022-08-10T09:31:03.578Z,99188.31
2022-08-10T09:36:26.169Z,99181.25
2022-08-10T09:37:39.998Z,99170.91
2022-08-10T09:40:59.627Z,99172.34
2022-08-10T09:44:02.613Z,99174.06
2022-08-10T09:47:00.440Z,99166.53
2022-08-10T09:50:04.943Z,99166.06
2022-08-10T09:53:06.423Z,99165.03
2022-08-10T09:56:19.383Z,99157.72
2022-08-10T09:59:59.391Z,99154.53
2022-08-10T10:02:36.276Z,99156.31
2022-08-10T10:05:38.246Z,99160.25
2022-08-10T10:08:31.832Z,99150.03
2022-08-10T10:11:27.812Z,99156.22
2022-08-10T10:14:35.647Z,99146.66
2022-08-10T10:17:35.947Z,99140.47
2022-08-10T10:20:29.661Z,99145.47
2022-08-10T10:23:26.049Z,99145.75
2022-08-10T10:26:21.379Z,99135.50
2022-08-10T10:29:55.620Z,99141.56
2022-08-10T10:32:37.378Z,99135.63
2022-08-10T10:35:32.156Z,99125.88
2022-08-10T10:38:24.287Z,99125.50
2022-08-10T10:41:21.280Z,99127.78
2022-08-10T10:44:38.964Z,99132.88
2022-08-10T10:47:56.844Z,99116.59
2022-08-10T10:50:59.864Z,99124.66
2022-08-10T10:54:03.330Z,99126.53
2022-08-10T10:56:58.214Z,99124.41
2022-08-10T10:59:57.838Z,99124.94
2022-08-10T11:03:00.948Z,99117.53
2022-08-10T11:05:56.242Z,99111.72
2022-08-10T11:08:52.199Z,99105.94
2022-08-10T11:12:02.037Z,99102.63
2022-08-10T11:14:59.822Z,99104.75
2022-08-10T11:17:56.434Z,99108.75
2022-08-10T11:20:52.872Z,99104.53
2022-08-10T11:24:47.704Z,99099.44
2022-08-10T11:27:03.595Z,99100.84
2022-08-10T11:30:01.940Z,99090.84
2022-08-10T11:33:04.941Z,99099.88
2022-08-10T11:35:57.769Z,99097.25
2022-08-10T11:39:13.484Z,99101.38
2022-08-10T11:42:23.205Z,99098.00
2022-08-10T11:45:23.278Z,99097.53
2022-08-10T11:48:54.227Z,99101.47
2022-08-10T11:51:35.721Z,99100.19
2022-08-10T11:54:30.667Z,99093.94
2022-08-10T11:57:21.115Z,99097.00
2022-08-10T12:00:10.027Z,99100.66
2022-08-10T12:03:04.900Z,99089.16
2022-08-10T12:05:56.153Z,99084.06
2022-08-10T12:10:10.474Z,99091.69
2022-08-10T12:11:56.420Z,99090.47
2022-08-10T12:14:51.661Z,99082.50
2022-08-10T12:17:46.374Z,99077.13
2022-08-10T12:20:38.691Z,99085.56
2022-08-10T12:23:39.197Z,99083.28
2022-08-10T12:26:33.741Z,99078.66
2022-08-10T12:29:28.389Z,99075.09
2022-08-10T12:32:25.905Z,99076.50
2022-08-10T12:35:23.709Z,99073.53
2022-08-10T12:38:22.274Z,99063.72
2022-08-10T12:41:18.527Z,99051.34
2022-08-10T12:44:41.040Z,99056.84
2022-08-10T12:47:41.969Z,99060.47
2022-08-10T12:50:40.598Z,99053.78
2022-08-10T12:53:42.260Z,99044.63
2022-08-10T12:56:36.842Z,99049.72
2022-08-10T12:59:29.749Z,99039.75
2022-08-10T13:02:22.776Z,99032.03
2022-08-10T13:05:13.669Z,99038.25
2022-08-10T13:08:26.571Z,99028.06
2022-08-10T13:12:34.239Z,99027.97
2022-08-10T13:14:33.591Z,99026.47
2022-08-10T13:17:32.304Z,99012.41
2022-08-10T13:20:29.602Z,99018.25
2022-08-10T13:23:23.434Z,99017.06
2022-08-10T13:26:15.728Z,99012.16
2022-08-10T13:29:13.300Z,99027.72
2022-08-10T13:32:09.823Z,99026.44
2022-08-10T13:35:03.740Z,99016.41
2022-08-10T13:37:55.761Z,99014.50
2022-08-10T13:40:49.944Z,99001.63
2022-08-10T13:43:39.234Z,99001.81
2022-08-10T13:46:29.430Z,98995.88
2022-08-10T13:49:19.264Z,98985.88
2022-08-10T13:52:13.784Z,98997.16
2022-08-10T13:55:03.271Z,98994.94
2022-08-10T13:57:53.830Z,98994.69
2022-08-10T14:00:47.447Z,98991.31
2022-08-10T14:03:40.010Z,98992.94
2022-08-10T14:06:30.089Z,98993.63
2022-08-10T14:09:24.011Z,98987.88
2022-08-10T14:12:13.969Z,98986.53
2022-08-10T14:15:04.643Z,98968.81
2022-08-10T14:17:57.356Z,98979.84
2022-08-10T14:20:49.325Z,98971.19
2022-08-10T14:23:41.806Z,98972.28
2022-08-10T14:26:31.418Z,98972.31
2022-08-10T14:29:23.298Z,98961.19
2022-08-10T14:32:14.086Z,98968.91
2022-08-10T14:36:18.537Z,98974.00
2022-08-10T14:38:22.535Z,98967.88
2022-08-10T14:42:01.748Z,98982.31
2022-08-10T14:44:29.047Z,98953.34
2022-08-10T14:47:53.359Z,98984.88
2022-08-10T14:50:33.485Z,98986.78
2022-08-10T14:53:27.321Z,98961.72
2022-08-10T14:56:19.465Z,98969.59
2022-08-10T14:59:09.851Z,98961.09
2022-08-10T15:02:38.788Z,98943.22
2022-08-10T15:05:10.897Z,98962.06
2022-08-10T15:08:00.712Z,98949.72
2022-08-10T15:10:57.686Z,98949.88
2022-08-10T15:14:14.953Z,98949.66
2022-08-10T15:16:58.593Z,98940.38
2022-08-10T15:20:04.214Z,98934.97
2022-08-10T15:23:02.163Z,98932.75
2022-08-10T15:25:57.978Z,98939.81
2022-08-10T15:29:21.950Z,98945.84
2022-08-10T15:32:17.637Z,98939.78
2022-08-10T15:35:25.965Z,98930.44
2022-08-10T15:38:19.014Z,98934.94
2022-08-10T15:41:12.266Z,98926.31
2022-08-10T15:44:00.789Z,98945.00
2022-08-10T15:46:51.521Z,98937.63
2022-08-10T15:49:48.998Z,98915.63
2022-08-10T15:53:01.935Z,98929.88
2022-08-10T15:55:54.027Z,98940.69
2022-08-10T15:58:49.049Z,98933.22
2022-08-10T16:02:14.354Z,98955.63
2022-08-10T16:04:53.385Z,98943.13
2022-08-10T16:07:49.076Z,98931.78
2022-08-10T16:10:45.868Z,98946.97
2022-08-10T16:13:50.702Z,98941.41
2022-08-10T16:16:55.700Z,98935.53
2022-08-10T16:19:49.724Z,98949.97
2022-08-10T16:22:38.201Z,98944.09
2022-08-10T16:25:51.273Z,98949.22
2022-08-10T16:28:40.125Z,98948.56
2022-08-10T16:31:32.491Z,98944.00
2022-08-10T16:34:24.811Z,98961.69
2022-08-10T16:37:15.937Z,98949.25
2022-08-10T16:40:07.293Z,98960.13
2022-08-10T16:42:57.261Z,98944.47
2022-08-10T16:45:48.905Z,98964.91
2022-08-10T16:48:50.063Z,98948.59
2022-08-10T16:51:42.347Z,98949.78
2022-08-10T16:54:32.396Z,98954.22
2022-08-10T16:57:27.376Z,98952.59
2022-08-10T17:00:21.548Z,98954.44
2022-08-10T17:04:04.838Z,98944.88
2022-08-10T17:06:27.919Z,98953.16
2022-08-10T17:09:19.824Z,98949.38
2022-08-10T17:12:11.704Z,98951.28
2022-08-10T17:15:10.285Z,98958.50
2022-08-10T17:18:02.418Z,98956.91
2022-08-10T17:20:52.436Z,98955.00
2022-08-10T17:23:47.008Z,98954.13
2022-08-10T17:26:38.979Z,98964.03
2022-08-10T17:29:59.010Z,98956.78
2022-08-10T17:32:45.191Z,98962.44
2022-08-10T17:35:37.399Z,98956.03
2022-08-10T17:38:30.225Z,98958.03
2022-08-10T17:41:35.144Z,98961.03
2022-08-10T17:44:25.931Z,98955.59
2022-08-10T17:47:14.747Z,98958.97
2022-08-10T17:50:03.942Z,98963.31
2022-08-10T17:52:55.272Z,98956.16
2022-08-10T17:55:47.166Z,98958.59
2022-08-10T17:58:38.329Z,98971.41
2022-08-10T18:01:40.586Z,98970.16
2022-08-10T18:04:42.601Z,98969.31
2022-08-10T18:07:35.739Z,98971.06
2022-08-10T18:10:24.798Z,98975.34
2022-08-10T18:13:17.506Z,98969.69
2022-08-10T18:16:07.303Z,98972.84
2022-08-10T18:19:00.980Z,98977.53
2022-08-10T18:21:50.874Z,98976.38
2022-08-10T18:24:40.573Z,98982.56
2022-08-10T18:27:46.588Z,98981.19
2022-08-10T18:30:48.251Z,98983.63
2022-08-10T18:33:45.404Z,98987.97
2022-08-10T18:36:41.370Z,98994.56
2022-08-10T18:39:35.204Z,98985.56
2022-08-10T18:42:32.478Z,98997.09
2022-08-10T18:45:24.148Z,99004.22
2022-08-10T18:48:17.912Z,99006.16
2022-08-10T18:51:07.799Z,99011.53
2022-08-10T18:54:05.604Z,99011.28
2022-08-10T18:56:58.003Z,99011.72
2022-08-10T19:00:08.848Z,99019.66
2022-08-10T19:03:11.479Z,99020.19
2022-08-10T19:06:34.036Z,99017.50
2022-08-10T19:09:46.679Z,99012.75
2022-08-10T19:12:53.113Z,99010.31
2022-08-10T19:15:52.696Z,99011.25
2022-08-10T19:18:53.239Z,99019.91
2022-08-10T19:21:46.478Z,99012.56
2022-08-10T19:25:02.581Z,99016.72
2022-08-10T19:28:02.928Z,99022.63
2022-08-10T19:30:55.400Z,99023.69
2022-08-10T19:33:52.665Z,99020.41
2022-08-10T19:37:10.109Z,99026.41
2022-08-10T19:40:15.455Z,99016.16
2022-08-10T19:43:09.537Z,99020.09
2022-08-10T19:46:05.665Z,99018.75
2022-08-10T19:48:59.848Z,99017.38
2022-08-10T19:51:56.985Z,99014.88
2022-08-10T19:54:55.719Z,99006.56
2022-08-10T19:57:53.201Z,99013.31
2022-08-10T20:00:50.917Z,99003.94
2022-08-10T20:03:45.817Z,99009.81
2022-08-10T20:06:43.609Z,99013.88
2022-08-10T20:09:42.677Z,99011.69
2022-08-10T20:12:38.369Z,99006.69
2022-08-10T20:15:42.301Z,99008.91
2022-08-10T20:18:37.503Z,99016.00
2022-08-10T20:21:29.897Z,99012.34
2022-08-10T20:24:27.789Z,99013.72
2022-08-10T20:28:00.003Z,99015.53
2022-08-10T20:30:35.890Z,99006.78
2022-08-10T20:33:29.379Z,99010.78
2022-08-10T20:36:26.422Z,99002.38
2022-08-10T20:39:19.532Z,99003.28
2022-08-10T20:42:12.971Z,99009.47
2022-08-10T20:45:05.632Z,99006.88
2022-08-10T20:48:00.783Z,99003.22
2022-08-10T20:50:54.627Z,99004.31
2022-08-10T20:53:48.011Z,99010.09
2022-08-10T20:56:43.604Z,98997.75
2022-08-10T21:00:04.233Z,98996.69
2022-08-10T21:03:22.017Z,99005.03
2022-08-10T21:06:54.588Z,99000.81
2022-08-10T21:09:53.796Z,98997.63
2022-08-10T21:13:05.621Z,99006.06
2022-08-10T21:16:04.650Z,99011.09
2022-08-10T21:19:15.671Z,98999.31
2022-08-10T21:22:15.650Z,99003.03
2022-08-10T21:25:07.638Z,99003.72
2022-08-10T21:28:10.909Z,98993.00
2022-08-10T21:31:21.784Z,98996.63
2022-08-10T21:34:31.826Z,98997.22
2022-08-10T21:37:40.067Z,98999.69
2022-08-10T21:41:16.996Z,98995.75
2022-08-10T21:44:25.593Z,98996.94
2022-08-10T21:48:07.507Z,98998.91
2022-08-10T21:51:27.125Z,98993.00
2022-08-10T21:54:51.801Z,98994.44
2022-08-10T21:58:07.734Z,98999.19
2022-08-10T22:01:17.698Z,99000.28
2022-08-10T22:04:24.577Z,98995.69
2022-08-10T22:07:36.693Z,98984.81
2022-08-10T22:10:46.807Z,98982.09
2022-08-10T22:14:01.605Z,98988.94
2022-08-10T22:18:03.462Z,98989.75
2022-08-10T22:20:45.585Z,98991.34
2022-08-10T22:24:16.668Z,98996.75
2022-08-10T22:27:47.574Z,98986.59
2022-08-10T22:34:59.561Z,98982.63
2022-08-10T22:38:14.302Z,98986.97
2022-08-10T22:41:32.158Z,98987.41
2022-08-10T22:44:40.403Z,98981.28
2022-08-10T22:47:49.408Z,98980.94
2022-08-10T22:50:38.123Z,98974.81
2022-08-10T22:53:51.761Z,98976.97
2022-08-10T22:56:59.327Z,98978.22
2022-08-10T22:59:49.499Z,98961.44
2022-08-10T23:02:40.005Z,98966.00
2022-08-10T23:05:33.808Z,98975.22
2022-08-10T23:08:30.696Z,98962.19
2022-08-10T23:11:23.527Z,98970.13
2022-08-10T23:14:16.063Z,98965.69
2022-08-10T23:18:00.631Z,98969.19
2022-08-10T23:20:38.808Z,98963.59
2022-08-10T23:23:31.232Z,98968.66
2022-08-10T23:26:27.189Z,98974.19
2022-08-10T23:29:17.360Z,98967.03
2022-08-10T23:32:09.324Z,98968.84
2022-08-10T23:36:31.003Z,98965.75
2022-08-10T23:38:10.357Z,98970.16
2022-08-10T23:41:03.797Z,98970.59
2022-08-10T23:44:04.141Z,98967.94
2022-08-10T23:46:55.092Z,98969.13
2022-08-10T23:49:44.437Z,98972.03
2022-08-10T23:52:35.106Z,98962.84
2022-08-10T23:55:25.863Z,98958.94
2022-08-10T23:58:30.040Z,98967.91
